Time;durP1;ratioP1;P1;durP2;ratioP2;P2;SDS_P1;SDS_P2;PMS_P1;PMS_P2;Temp;Humidity;BMP_temperature;BMP_pressure;BME280_temperature;BME280_humidity;BME280_pressure;Samples;Min_cycle;Max_cycle;Signal;HPM_P1;HPM_P2
2023/07/13 00:01:12;;;;;;;;;;;16.00;99.90;;;;;;5053278;28;19932;-83
2023/07/13 00:03:40;;;;;;;;;;;16.00;99.90;;;;;;5039660;28;20334;-85
2023/07/13 00:06:07;;;;;;;;;;;15.90;99.90;;;;;;5055956;28;19932;-86
2023/07/13 00:08:35;;;;;;;;;;;15.90;99.90;;;;;;5053477;28;20975;-85
2023/07/13 00:11:02;;;;;;;;;;;15.90;99.90;;;;;;5060066;28;19925;-83
2023/07/13 00:13:28;;;;;;;;;;;15.90;99.90;;;;;;5052807;28;19925;-83
2023/07/13 00:15:53;;;;;;;;;;;15.90;99.90;;;;;;5035477;28;20315;-87
2023/07/13 00:18:19;;;;;;;;;;;15.90;99.90;;;;;;5041644;28;19928;-84
2023/07/13 00:20:45;;;;;;;;;;;15.90;99.90;;;;;;5056986;28;19929;-87
2023/07/13 00:23:10;;;;;;;;;;;15.80;99.90;;;;;;5041692;28;19990;-85
2023/07/13 00:25:36;;;;;;;;;;;15.90;99.90;;;;;;5038164;28;19925;-84
2023/07/13 00:28:02;;;;;;;;;;;15.80;99.90;;;;;;5054408;28;19943;-82
2023/07/13 00:30:27;;;;;;;;;;;15.90;99.90;;;;;;5036132;28;20351;-83
2023/07/13 00:32:53;;;;;;;;;;;15.90;99.90;;;;;;5039732;28;19929;-86
2023/07/13 00:35:19;;;;;;;;;;;15.90;99.90;;;;;;5054657;28;19933;-84
2023/07/13 00:37:44;;;;;;;;;;;16.00;99.90;;;;;;5053590;28;19983;-83
2023/07/13 00:40:14;;;;;;;;;;;16.00;99.90;;;;;;5056263;28;20015;-85
2023/07/13 00:42:40;;;;;;;;;;;16.00;99.90;;;;;;5054723;28;19925;-84
2023/07/13 00:45:11;;;;;;;;;;;16.00;99.90;;;;;;5050525;28;19925;-84
2023/07/13 00:47:37;;;;;;;;;;;16.00;99.90;;;;;;5053123;28;19925;-83
2023/07/13 00:50:03;;;;;;;;;;;16.00;99.90;;;;;;5052233;28;19931;-83
2023/07/13 00:52:30;;;;;;;;;;;16.10;99.90;;;;;;5035731;28;19947;-82
2023/07/13 00:54:56;;;;;;;;;;;16.00;99.90;;;;;;5040772;28;21750;-85
2023/07/13 00:57:21;;;;;;;;;;;16.10;99.90;;;;;;5051020;28;20016;-85
2023/07/13 00:59:50;;;;;;;;;;;16.00;99.90;;;;;;5053266;28;19929;-83
2023/07/13 01:02:16;;;;;;;;;;;16.00;99.90;;;;;;5053743;28;19924;-84
2023/07/13 01:04:43;;;;;;;;;;;16.00;99.90;;;;;;5051779;28;19929;-82
2023/07/13 01:07:09;;;;;;;;;;;16.00;99.90;;;;;;5038495;28;19951;-83
2023/07/13 01:09:35;;;;;;;;;;;16.00;99.90;;;;;;5062727;28;19925;-84
2023/07/13 01:12:01;;;;;;;;;;;16.00;99.90;;;;;;5034977;28;19990;-83
2023/07/13 01:14:26;;;;;;;;;;;16.00;99.90;;;;;;5051869;28;19925;-83
2023/07/13 01:16:52;;;;;;;;;;;15.90;99.90;;;;;;5051676;28;20024;-84
2023/07/13 01:19:25;;;;;;;;;;;15.90;99.90;;;;;;5033910;28;19978;-83
2023/07/13 01:21:52;;;;;;;;;;;15.80;99.90;;;;;;5050385;28;19933;-82
2023/07/13 01:24:17;;;;;;;;;;;15.70;99.90;;;;;;5046639;28;20307;-84
2023/07/13 01:26:43;;;;;;;;;;;15.70;99.90;;;;;;5034255;28;19928;-82
2023/07/13 01:29:09;;;;;;;;;;;15.70;99.90;;;;;;5017164;28;19932;-84
2023/07/13 01:31:34;;;;;;;;;;;15.70;99.90;;;;;;5031528;28;19929;-85
2023/07/13 01:34:00;;;;;;;;;;;15.80;99.90;;;;;;5032460;28;19924;-83
2023/07/13 01:36:26;;;;;;;;;;;15.80;99.90;;;;;;5052656;28;19932;-85
2023/07/13 01:38:51;;;;;;;;;;;15.80;99.90;;;;;;5050269;28;20046;-83
2023/07/13 01:41:17;;;;;;;;;;;15.80;99.90;;;;;;5036990;28;20525;-86
2023/07/13 01:43:42;;;;;;;;;;;15.90;99.90;;;;;;5050905;28;19932;-84
2023/07/13 01:46:08;;;;;;;;;;;15.80;99.90;;;;;;5047849;28;19935;-85
2023/07/13 01:48:33;;;;;;;;;;;15.80;99.90;;;;;;5033439;28;19929;-83
2023/07/13 01:50:59;;;;;;;;;;;15.80;99.90;;;;;;5052781;28;19995;-82
2023/07/13 01:53:25;;;;;;;;;;;15.80;99.90;;;;;;5051034;28;19981;-82
2023/07/13 01:55:50;;;;;;;;;;;15.80;99.90;;;;;;5035286;28;20014;-86
2023/07/13 01:58:16;;;;;;;;;;;15.80;99.90;;;;;;5052306;28;20365;-83
2023/07/13 02:00:41;;;;;;;;;;;15.70;99.90;;;;;;5036141;28;20336;-82
2023/07/13 02:03:07;;;;;;;;;;;15.70;99.90;;;;;;5050139;28;20007;-83
2023/07/13 02:05:33;;;;;;;;;;;15.60;99.90;;;;;;5047627;28;19967;-83
2023/07/13 02:07:58;;;;;;;;;;;15.60;99.90;;;;;;5039092;28;20037;-84
2023/07/13 02:10:24;;;;;;;;;;;15.60;99.90;;;;;;5048772;28;19953;-84
2023/07/13 02:12:50;;;;;;;;;;;15.50;99.90;;;;;;5036367;28;19929;-83
2023/07/13 02:15:16;;;;;;;;;;;15.50;99.90;;;;;;5051121;28;19928;-84
2023/07/13 02:17:42;;;;;;;;;;;15.50;99.90;;;;;;5049161;28;19981;-83
2023/07/13 02:20:07;;;;;;;;;;;15.40;99.90;;;;;;5054108;28;19987;-84
2023/07/13 02:22:33;;;;;;;;;;;15.40;99.90;;;;;;5037089;28;19932;-83
2023/07/13 02:24:59;;;;;;;;;;;15.30;99.90;;;;;;5058147;28;20408;-85
2023/07/13 02:27:24;;;;;;;;;;;15.30;99.90;;;;;;5054405;28;19925;-85
2023/07/13 02:29:51;;;;;;;;;;;15.30;99.90;;;;;;5052113;28;19932;-82
2023/07/13 02:32:17;;;;;;;;;;;15.30;99.90;;;;;;5054724;28;20324;-84
2023/07/13 02:34:43;;;;;;;;;;;15.30;99.90;;;;;;5056463;28;19932;-85
2023/07/13 02:37:08;;;;;;;;;;;15.30;99.90;;;;;;5056043;28;19928;-84
2023/07/13 02:39:34;;;;;;;;;;;15.30;99.90;;;;;;5052310;28;20005;-85
2023/07/13 02:42:00;;;;;;;;;;;15.20;99.90;;;;;;5056209;28;20295;-87
2023/07/13 02:44:26;;;;;;;;;;;15.20;99.90;;;;;;5058277;28;19925;-84
2023/07/13 02:46:51;;;;;;;;;;;15.20;99.90;;;;;;5056063;28;20900;-84
2023/07/13 02:49:17;;;;;;;;;;;15.20;99.90;;;;;;5039699;28;19939;-84
2023/07/13 02:51:43;;;;;;;;;;;15.20;99.90;;;;;;5059272;28;19929;-87
2023/07/13 02:54:09;;;;;;;;;;;15.20;99.90;;;;;;5055984;28;19951;-83
2023/07/13 02:56:34;;;;;;;;;;;15.20;99.90;;;;;;5042711;28;19925;-84
2023/07/13 02:59:00;;;;;;;;;;;15.10;99.90;;;;;;5058547;28;19974;-84
2023/07/13 03:01:26;;;;;;;;;;;15.20;99.90;;;;;;5041128;28;20019;-84
2023/07/13 03:03:52;;;;;;;;;;;15.20;99.90;;;;;;5056792;28;20008;-83
2023/07/13 03:06:18;;;;;;;;;;;15.20;99.90;;;;;;5043440;28;20007;-84
2023/07/13 03:08:44;;;;;;;;;;;15.10;99.90;;;;;;5051718;28;19933;-83
2023/07/13 03:11:11;;;;;;;;;;;15.20;99.90;;;;;;5053833;28;19929;-84
2023/07/13 03:13:37;;;;;;;;;;;15.10;99.90;;;;;;5057063;28;20433;-84
2023/07/13 03:16:03;;;;;;;;;;;15.10;99.90;;;;;;5054360;28;19936;-85
2023/07/13 03:18:29;;;;;;;;;;;15.10;99.90;;;;;;5054754;28;19928;-83
2023/07/13 03:20:54;;;;;;;;;;;15.10;99.90;;;;;;5054910;28;19931;-85
2023/07/13 03:23:20;;;;;;;;;;;15.20;99.90;;;;;;5040390;28;19925;-85
2023/07/13 03:25:46;;;;;;;;;;;15.20;99.90;;;;;;5044279;28;19932;-85
2023/07/13 03:28:12;;;;;;;;;;;15.20;99.90;;;;;;5056265;28;19929;-83
2023/07/13 03:30:37;;;;;;;;;;;15.20;99.90;;;;;;5052524;28;19924;-85
2023/07/13 03:33:03;;;;;;;;;;;15.30;99.90;;;;;;5057553;28;19928;-84
2023/07/13 03:35:29;;;;;;;;;;;15.30;99.90;;;;;;5053931;28;19963;-85
2023/07/13 03:37:54;;;;;;;;;;;15.30;99.90;;;;;;5053821;28;20420;-83
2023/07/13 03:40:20;;;;;;;;;;;15.30;99.90;;;;;;5054889;28;19932;-85
2023/07/13 03:42:46;;;;;;;;;;;15.40;99.90;;;;;;5055165;28;20383;-85
2023/07/13 03:45:12;;;;;;;;;;;15.40;99.90;;;;;;5050908;28;19943;-85
2023/07/13 03:47:37;;;;;;;;;;;15.40;99.90;;;;;;5056628;28;19925;-86
2023/07/13 03:50:03;;;;;;;;;;;15.40;99.90;;;;;;5023902;28;19930;-85
2023/07/13 03:52:29;;;;;;;;;;;15.50;99.90;;;;;;5053399;28;19953;-85
2023/07/13 03:54:54;;;;;;;;;;;15.50;99.90;;;;;;5053404;28;19929;-83
2023/07/13 03:57:20;;;;;;;;;;;15.60;99.90;;;;;;5051991;28;19935;-84
2023/07/13 03:59:45;;;;;;;;;;;15.50;99.90;;;;;;5050808;28;19977;-83
2023/07/13 04:02:11;;;;;;;;;;;15.60;99.90;;;;;;5042633;28;20363;-82
2023/07/13 04:04:38;;;;;;;;;;;15.50;99.90;;;;;;5033984;28;21676;-86
2023/07/13 04:07:04;;;;;;;;;;;15.50;99.90;;;;;;5030655;28;19940;-86
2023/07/13 04:09:29;;;;;;;;;;;15.50;99.90;;;;;;5036261;28;19925;-85
2023/07/13 04:11:55;;;;;;;;;;;15.50;99.90;;;;;;5033452;28;19959;-85
2023/07/13 04:14:21;;;;;;;;;;;15.40;99.90;;;;;;5033109;28;19987;-85
2023/07/13 04:16:46;;;;;;;;;;;15.40;99.90;;;;;;5032602;28;19925;-86
2023/07/13 04:19:12;;;;;;;;;;;15.30;99.90;;;;;;5031340;28;19925;-86
2023/07/13 04:21:38;;;;;;;;;;;15.30;99.90;;;;;;5032507;28;19929;-87
2023/07/13 04:24:04;;;;;;;;;;;15.30;99.90;;;;;;5032743;28;20343;-85
2023/07/13 04:26:30;;;;;;;;;;;15.30;99.90;;;;;;5015298;28;20032;-85
2023/07/13 04:28:55;;;;;;;;;;;15.40;99.90;;;;;;5032525;28;19932;-88
2023/07/13 04:31:21;;;;;;;;;;;15.40;99.90;;;;;;5030664;28;19929;-86
2023/07/13 04:33:47;;;;;;;;;;;15.40;99.90;;;;;;5015242;28;20359;-85
2023/07/13 04:36:14;;;;;;;;;;;15.50;99.90;;;;;;5030596;28;19925;-85
2023/07/13 04:38:41;;;;;;;;;;;15.50;99.90;;;;;;5037320;28;19937;-85
2023/07/13 04:41:07;;;;;;;;;;;15.60;99.90;;;;;;5019794;28;19951;-84
2023/07/13 04:43:33;;;;;;;;;;;15.60;99.90;;;;;;5032487;28;19941;-85
2023/07/13 04:46:03;;;;;;;;;;;15.60;99.90;;;;;;5033159;28;19925;-84
2023/07/13 04:48:28;;;;;;;;;;;15.60;99.90;;;;;;5033905;28;19931;-85
2023/07/13 04:50:55;;;;;;;;;;;15.60;99.90;;;;;;5032448;28;19933;-85
2023/07/13 04:53:21;;;;;;;;;;;15.50;99.90;;;;;;5034740;28;19999;-85
2023/07/13 04:55:47;;;;;;;;;;;15.60;99.90;;;;;;5033193;28;20371;-85
2023/07/13 04:58:12;;;;;;;;;;;15.60;99.90;;;;;;5032141;28;19932;-86
2023/07/13 05:00:38;;;;;;;;;;;15.60;99.90;;;;;;5032319;28;19924;-84
2023/07/13 05:03:04;;;;;;;;;;;15.70;99.90;;;;;;5043753;28;19929;-84
2023/07/13 05:05:29;;;;;;;;;;;15.80;99.90;;;;;;5051953;28;19933;-84
2023/07/13 05:07:55;;;;;;;;;;;16.00;99.90;;;;;;5051717;28;19932;-83
2023/07/13 05:10:21;;;;;;;;;;;16.10;99.90;;;;;;5034937;28;19932;-86
2023/07/13 05:12:46;;;;;;;;;;;16.30;99.90;;;;;;5052429;28;19971;-84
2023/07/13 05:15:12;;;;;;;;;;;16.50;99.90;;;;;;5051049;28;19925;-85
2023/07/13 05:17:40;;;;;;;;;;;16.90;99.90;;;;;;5051630;28;20011;-85
2023/07/13 05:20:07;;;;;;;;;;;17.40;99.90;;;;;;5033602;28;19932;-84
2023/07/13 05:22:34;;;;;;;;;;;17.90;99.90;;;;;;5051180;28;20263;-84
2023/07/13 05:25:01;;;;;;;;;;;18.30;99.90;;;;;;5051688;28;19928;-85
2023/07/13 05:27:26;;;;;;;;;;;18.70;99.90;;;;;;5033532;28;20364;-84
2023/07/13 05:29:52;;;;;;;;;;;19.10;99.90;;;;;;5032932;28;19932;-85
2023/07/13 05:32:18;;;;;;;;;;;19.50;99.90;;;;;;5051425;28;19931;-85
2023/07/13 05:34:43;;;;;;;;;;;19.80;99.90;;;;;;5066851;28;19925;-88
2023/07/13 05:37:09;;;;;;;;;;;20.10;99.90;;;;;;5034812;28;19925;-86
2023/07/13 05:39:34;;;;;;;;;;;20.30;99.90;;;;;;5037426;28;20013;-87
2023/07/13 05:42:00;;;;;;;;;;;20.40;99.90;;;;;;5056981;28;20310;-86
2023/07/13 05:44:25;;;;;;;;;;;20.50;99.90;;;;;;5056304;28;19968;-84
2023/07/13 05:46:51;;;;;;;;;;;20.60;99.90;;;;;;5054678;28;20464;-86
2023/07/13 05:49:16;;;;;;;;;;;20.70;99.90;;;;;;5052254;28;19959;-85
2023/07/13 05:51:42;;;;;;;;;;;20.80;99.90;;;;;;5046510;28;19924;-85
2023/07/13 05:54:08;;;;;;;;;;;20.90;99.90;;;;;;5049965;28;20430;-85
2023/07/13 05:56:33;;;;;;;;;;;21.10;99.90;;;;;;5030116;28;20039;-84
2023/07/13 05:58:59;;;;;;;;;;;21.40;99.90;;;;;;5055608;28;19932;-86
2023/07/13 06:01:24;;;;;;;;;;;21.60;99.90;;;;;;5053169;28;19925;-87
2023/07/13 06:03:50;;;;;;;;;;;21.80;99.90;;;;;;5056446;28;20023;-86
2023/07/13 06:06:16;;;;;;;;;;;22.00;99.90;;;;;;5020696;28;19925;-83
2023/07/13 06:08:41;;;;;;;;;;;22.20;99.90;;;;;;5043286;28;20007;-88
2023/07/13 06:11:11;;;;;;;;;;;22.30;99.90;;;;;;5034126;28;19925;-84
2023/07/13 06:13:36;;;;;;;;;;;22.40;99.90;;;;;;5051119;28;20514;-85
2023/07/13 06:16:04;;;;;;;;;;;22.50;99.90;;;;;;5040396;28;19925;-85
2023/07/13 06:18:30;;;;;;;;;;;22.70;99.90;;;;;;5037089;28;19928;-86
2023/07/13 06:20:56;;;;;;;;;;;22.80;99.90;;;;;;5057160;28;19978;-85
2023/07/13 06:23:22;;;;;;;;;;;23.00;99.90;;;;;;5034228;28;19975;-86
2023/07/13 06:25:47;;;;;;;;;;;23.20;99.90;;;;;;5049889;28;20278;-87
2023/07/13 06:28:13;;;;;;;;;;;23.30;99.90;;;;;;5050539;28;20429;-86
2023/07/13 06:30:39;;;;;;;;;;;23.40;99.90;;;;;;5050985;28;20370;-85
2023/07/13 06:33:05;;;;;;;;;;;23.70;99.90;;;;;;5048424;28;19933;-88
2023/07/13 06:35:30;;;;;;;;;;;23.90;99.90;;;;;;5039159;28;19939;-85
2023/07/13 06:37:56;;;;;;;;;;;23.90;99.90;;;;;;5055589;28;19924;-86
2023/07/13 06:40:21;;;;;;;;;;;24.00;99.90;;;;;;5051853;28;19932;-86
2023/07/13 06:42:47;;;;;;;;;;;23.80;99.90;;;;;;5038742;28;19936;-85
2023/07/13 06:45:12;;;;;;;;;;;23.20;99.90;;;;;;5031681;28;19926;-87
2023/07/13 06:47:38;;;;;;;;;;;22.80;99.90;;;;;;5032528;28;20327;-85
2023/07/13 06:50:04;;;;;;;;;;;22.20;99.90;;;;;;5059953;28;20025;-87
2023/07/13 06:52:29;;;;;;;;;;;21.80;99.90;;;;;;5026336;28;19928;-84
2023/07/13 06:54:55;;;;;;;;;;;21.40;99.90;;;;;;5048575;28;20317;-87
2023/07/13 06:57:20;;;;;;;;;;;21.10;99.90;;;;;;5050383;28;19998;-86
2023/07/13 06:59:46;;;;;;;;;;;20.80;99.90;;;;;;5032905;28;19932;-84
2023/07/13 07:02:11;;;;;;;;;;;20.60;99.90;;;;;;5050490;28;19932;-85
2023/07/13 07:04:37;;;;;;;;;;;20.40;99.90;;;;;;5051106;28;19936;-87
2023/07/13 07:07:03;;;;;;;;;;;20.20;99.90;;;;;;5036006;28;20347;-85
2023/07/13 07:09:29;;;;;;;;;;;20.10;99.90;;;;;;5036241;28;19925;-84
2023/07/13 07:11:55;;;;;;;;;;;20.00;99.90;;;;;;5054202;28;19995;-86
2023/07/13 07:14:21;;;;;;;;;;;19.90;99.90;;;;;;5054141;28;20387;-84
2023/07/13 07:16:46;;;;;;;;;;;19.80;99.90;;;;;;5050285;28;19925;-82
2023/07/13 07:19:12;;;;;;;;;;;19.70;99.90;;;;;;5058045;28;19986;-85
2023/07/13 07:21:37;;;;;;;;;;;19.60;99.90;;;;;;5050443;28;19932;-84
2023/07/13 07:24:04;;;;;;;;;;;19.50;99.90;;;;;;5049493;28;19928;-83
2023/07/13 07:26:30;;;;;;;;;;;19.40;99.90;;;;;;5051726;28;20600;-83
2023/07/13 07:28:55;;;;;;;;;;;19.40;99.90;;;;;;5050398;28;20015;-83
2023/07/13 07:31:21;;;;;;;;;;;19.30;99.90;;;;;;5056061;28;19936;-85
2023/07/13 07:33:47;;;;;;;;;;;19.30;99.90;;;;;;5053944;28;19978;-82
2023/07/13 07:36:12;;;;;;;;;;;19.20;99.90;;;;;;5053558;28;19970;-82
2023/07/13 07:38:38;;;;;;;;;;;19.20;99.90;;;;;;5055724;28;20394;-81
2023/07/13 07:41:04;;;;;;;;;;;19.20;99.90;;;;;;5055760;28;19933;-81
2023/07/13 07:43:31;;;;;;;;;;;19.30;99.90;;;;;;5054315;28;19929;-82
2023/07/13 07:45:56;;;;;;;;;;;19.40;99.90;;;;;;5037961;28;19924;-86
2023/07/13 07:48:22;;;;;;;;;;;19.50;99.90;;;;;;5053743;28;20478;-83
2023/07/13 07:50:48;;;;;;;;;;;19.60;99.90;;;;;;5035840;28;19925;-82
2023/07/13 07:53:13;;;;;;;;;;;19.80;99.90;;;;;;5051697;28;19924;-83
2023/07/13 07:55:39;;;;;;;;;;;20.10;99.90;;;;;;5040678;28;20008;-85
2023/07/13 07:58:05;;;;;;;;;;;20.20;99.90;;;;;;5053150;28;19956;-84
2023/07/13 08:00:31;;;;;;;;;;;20.40;99.90;;;;;;5061491;28;20310;-86
2023/07/13 08:02:57;;;;;;;;;;;20.60;99.90;;;;;;5037195;28;19931;-86
2023/07/13 08:05:22;;;;;;;;;;;21.30;99.90;;;;;;5066397;28;19933;-84
2023/07/13 08:07:48;;;;;;;;;;;21.70;99.90;;;;;;5051989;28;19929;-85
2023/07/13 08:10:14;;;;;;;;;;;21.80;99.90;;;;;;5033517;28;19932;-86
2023/07/13 08:12:40;;;;;;;;;;;21.70;99.90;;;;;;5035658;28;19932;-85
2023/07/13 08:15:06;;;;;;;;;;;21.70;99.90;;;;;;5052606;28;20008;-84
2023/07/13 08:17:32;;;;;;;;;;;21.60;99.90;;;;;;5052436;28;19924;-85
2023/07/13 08:19:58;;;;;;;;;;;21.60;99.90;;;;;;5034851;28;19929;-85
2023/07/13 08:22:23;;;;;;;;;;;21.50;99.90;;;;;;5050271;28;19929;-85
2023/07/13 08:24:55;;;;;;;;;;;21.30;99.90;;;;;;5035136;28;20008;-84
2023/07/13 08:27:21;;;;;;;;;;;21.10;99.90;;;;;;5035253;28;19994;-85
2023/07/13 08:29:47;;;;;;;;;;;20.90;99.90;;;;;;5052595;28;19929;-85
2023/07/13 08:32:13;;;;;;;;;;;20.80;99.90;;;;;;5040768;28;19969;-84
2023/07/13 08:34:39;;;;;;;;;;;20.70;99.90;;;;;;5059903;28;20008;-84
2023/07/13 08:37:05;;;;;;;;;;;20.50;99.90;;;;;;5034317;28;19925;-83
2023/07/13 08:39:31;;;;;;;;;;;20.40;99.90;;;;;;5034695;28;19929;-85
2023/07/13 08:42:10;;;;;;;;;;;20.30;99.90;;;;;;5050200;28;20387;-86
2023/07/13 08:44:39;;;;;;;;;;;20.20;99.90;;;;;;5034767;28;19929;-86
2023/07/13 08:47:06;;;;;;;;;;;20.10;99.90;;;;;;5039846;28;19978;-85
2023/07/13 08:49:32;;;;;;;;;;;20.00;99.90;;;;;;5052135;28;19929;-84
2023/07/13 08:52:01;;;;;;;;;;;19.90;99.90;;;;;;5050977;28;19932;-85
2023/07/13 08:54:30;;;;;;;;;;;19.80;99.90;;;;;;5034510;28;20450;-85
2023/07/13 08:56:57;;;;;;;;;;;19.70;99.90;;;;;;5052123;28;19928;-86
2023/07/13 08:59:27;;;;;;;;;;;19.50;99.90;;;;;;5020331;28;19925;-86
2023/07/13 09:02:05;;;;;;;;;;;19.20;99.90;;;;;;5056232;28;19928;-85
2023/07/13 09:04:37;;;;;;;;;;;18.70;99.90;;;;;;5056858;28;20356;-86
2023/07/13 09:07:08;;;;;;;;;;;18.20;99.90;;;;;;5033118;28;19932;-85
2023/07/13 09:09:44;;;;;;;;;;;17.70;99.90;;;;;;5033982;28;19951;-86
2023/07/13 09:12:30;;;;;;;;;;;17.30;99.90;;;;;;5033925;28;19925;-86
2023/07/13 09:14:57;;;;;;;;;;;16.90;99.90;;;;;;5063602;28;19943;-86
2023/07/13 09:17:31;;;;;;;;;;;16.60;99.90;;;;;;5051611;28;19951;-86
2023/07/13 09:20:00;;;;;;;;;;;16.30;99.90;;;;;;5051399;28;20365;-86
2023/07/13 09:22:27;;;;;;;;;;;16.00;99.90;;;;;;5051047;28;20015;-85
2023/07/13 09:24:52;;;;;;;;;;;15.80;99.90;;;;;;5061502;28;20307;-85
2023/07/13 09:27:23;;;;;;;;;;;15.60;99.90;;;;;;5051235;28;19978;-85
2023/07/13 09:29:51;;;;;;;;;;;15.40;99.90;;;;;;5051245;28;19978;-84
2023/07/13 09:32:21;;;;;;;;;;;15.30;99.90;;;;;;5051712;28;19925;-84
2023/07/13 09:34:54;;;;;;;;;;;15.30;99.90;;;;;;5060483;28;19954;-83
2023/07/13 09:37:21;;;;;;;;;;;15.30;99.90;;;;;;5038138;28;19928;-86
2023/07/13 09:39:49;;;;;;;;;;;15.40;99.90;;;;;;5033736;28;19932;-86
2023/07/13 09:42:15;;;;;;;;;;;15.50;99.90;;;;;;5051149;28;19929;-86
2023/07/13 09:44:47;;;;;;;;;;;15.60;99.90;;;;;;5050319;28;19978;-86
2023/07/13 09:47:23;;;;;;;;;;;15.70;99.90;;;;;;5050798;28;19931;-87
2023/07/13 09:49:54;;;;;;;;;;;15.80;99.90;;;;;;5050795;28;19929;-86
2023/07/13 09:52:20;;;;;;;;;;;15.90;99.90;;;;;;5066270;28;19932;-85
2023/07/13 09:54:50;;;;;;;;;;;16.10;99.90;;;;;;5050033;28;19925;-86
2023/07/13 09:57:16;;;;;;;;;;;16.20;99.90;;;;;;5055598;28;19970;-87
2023/07/13 09:59:47;;;;;;;;;;;16.30;99.90;;;;;;5050828;28;20007;-84
2023/07/13 10:02:25;;;;;;;;;;;16.40;99.90;;;;;;5033497;28;19972;-87
2023/07/13 10:04:56;;;;;;;;;;;16.50;99.90;;;;;;5050867;28;20279;-87
2023/07/13 10:07:22;;;;;;;;;;;16.60;99.90;;;;;;5041400;28;19925;-86
2023/07/13 10:09:51;;;;;;;;;;;16.80;99.90;;;;;;5059269;28;19928;-87
2023/07/13 10:12:18;;;;;;;;;;;16.90;99.90;;;;;;5017272;28;19929;-87
2023/07/13 10:14:43;;;;;;;;;;;17.30;99.90;;;;;;5050659;28;20394;-86
2023/07/13 10:17:12;;;;;;;;;;;17.80;99.90;;;;;;5051740;28;19925;-86
2023/07/13 10:19:37;;;;;;;;;;;18.30;99.90;;;;;;5050828;28;19925;-85
2023/07/13 10:22:09;;;;;;;;;;;18.90;99.90;;;;;;5050152;28;19940;-86
2023/07/13 10:24:38;;;;;;;;;;;19.30;99.90;;;;;;5049276;28;20288;-86
2023/07/13 10:27:15;;;;;;;;;;;19.80;99.90;;;;;;5023350;28;19928;-85
2023/07/13 10:29:58;;;;;;;;;;;20.40;99.90;;;;;;5032947;28;19947;-86
2023/07/13 10:32:24;;;;;;;;;;;20.80;99.90;;;;;;5044288;28;20216;-84
2023/07/13 10:34:52;;;;;;;;;;;20.90;99.90;;;;;;5048120;28;19925;-85
2023/07/13 10:37:28;;;;;;;;;;;20.80;99.90;;;;;;5064509;28;19925;-85
2023/07/13 10:39:55;;;;;;;;;;;20.80;99.90;;;;;;5052470;28;19925;-84
2023/07/13 10:42:28;;;;;;;;;;;21.00;99.90;;;;;;5036119;28;20264;-85
2023/07/13 10:44:54;;;;;;;;;;;21.20;99.90;;;;;;5040582;28;20367;-85
2023/07/13 10:47:20;;;;;;;;;;;21.20;99.90;;;;;;5037173;28;19941;-84
2023/07/13 10:49:47;;;;;;;;;;;21.40;99.90;;;;;;5054363;28;19928;-85
2023/07/13 10:52:31;;;;;;;;;;;21.50;99.90;;;;;;5035784;28;20307;-83
2023/07/13 10:54:57;;;;;;;;;;;21.40;99.90;;;;;;5043466;28;19925;-84
2023/07/13 10:57:22;;;;;;;;;;;21.20;99.90;;;;;;5056878;28;19935;-84
2023/07/13 10:59:50;;;;;;;;;;;21.00;99.90;;;;;;5020239;28;19928;-85
2023/07/13 11:02:42;;;;;;;;;;;20.80;99.90;;;;;;5054324;28;19929;-83
2023/07/13 11:05:32;;;;;;;;;;;20.40;99.90;;;;;;5050106;28;20003;-83
2023/07/13 11:08:20;;;;;;;;;;;19.80;99.90;;;;;;5035406;28;19928;-83
2023/07/13 11:10:46;;;;;;;;;;;19.40;99.90;;;;;;5038947;28;19931;-84
2023/07/13 11:13:31;;;;;;;;;;;19.40;99.90;;;;;;5059957;28;19925;-83
2023/07/13 11:15:57;;;;;;;;;;;19.80;99.90;;;;;;5035500;28;20325;-84
2023/07/13 11:18:24;;;;;;;;;;;20.40;99.90;;;;;;5054257;28;19935;-83
2023/07/13 11:20:50;;;;;;;;;;;20.80;99.90;;;;;;5053785;28;19933;-85
2023/07/13 11:23:17;;;;;;;;;;;20.80;99.90;;;;;;5035665;28;20424;-86
2023/07/13 11:25:43;;;;;;;;;;;20.70;99.90;;;;;;5059807;28;19929;-86
2023/07/13 11:28:11;;;;;;;;;;;20.40;99.90;;;;;;5028828;28;19929;-86
2023/07/13 11:30:43;;;;;;;;;;;20.20;99.90;;;;;;5057093;28;19977;-85
2023/07/13 11:33:14;;;;;;;;;;;20.20;99.90;;;;;;5049525;28;19925;-86
2023/07/13 11:36:05;;;;;;;;;;;20.50;99.90;;;;;;5051029;28;20012;-88
2023/07/13 11:38:45;;;;;;;;;;;20.80;99.90;;;;;;5035578;28;19925;-87
2023/07/13 11:41:18;;;;;;;;;;;21.20;99.90;;;;;;5053877;28;19929;-86
2023/07/13 11:43:44;;;;;;;;;;;21.50;99.90;;;;;;5053128;28;20035;-86
2023/07/13 11:46:19;;;;;;;;;;;21.60;99.90;;;;;;5056462;28;20454;-88
2023/07/13 11:48:46;;;;;;;;;;;21.80;99.90;;;;;;5035693;28;19932;-87
2023/07/13 11:51:17;;;;;;;;;;;22.10;99.90;;;;;;5051380;28;20391;-87
2023/07/13 11:53:45;;;;;;;;;;;22.30;99.90;;;;;;5053530;28;20000;-87
2023/07/13 11:56:11;;;;;;;;;;;22.50;99.90;;;;;;5041167;28;19929;-87
2023/07/13 11:58:36;;;;;;;;;;;22.60;99.90;;;;;;5035764;28;19925;-86
2023/07/13 12:01:04;;;;;;;;;;;22.90;99.90;;;;;;5053090;28;20339;-85
2023/07/13 12:03:32;;;;;;;;;;;23.20;99.90;;;;;;5035302;28;19943;-86
2023/07/13 12:06:02;;;;;;;;;;;23.50;99.90;;;;;;5051095;28;19924;-87
2023/07/13 12:08:28;;;;;;;;;;;23.70;99.90;;;;;;5052872;28;20275;-87
2023/07/13 12:10:58;;;;;;;;;;;23.90;99.90;;;;;;5052870;28;19932;-87
2023/07/13 12:13:26;;;;;;;;;;;23.90;99.90;;;;;;5052792;28;19929;-87
2023/07/13 12:15:52;;;;;;;;;;;23.90;99.90;;;;;;5035627;28;19968;-88
2023/07/13 12:18:19;;;;;;;;;;;23.80;99.90;;;;;;5034143;28;19929;-86
2023/07/13 12:20:44;;;;;;;;;;;24.00;99.90;;;;;;5052978;28;19974;-87
2023/07/13 12:23:20;;;;;;;;;;;24.10;99.90;;;;;;5034329;28;19924;-87
2023/07/13 12:25:46;;;;;;;;;;;24.10;99.90;;;;;;5052733;28;20605;-87
2023/07/13 12:28:21;;;;;;;;;;;23.90;99.90;;;;;;5065058;28;19973;-86
2023/07/13 12:30:48;;;;;;;;;;;23.70;99.90;;;;;;5052564;28;19935;-87
2023/07/13 12:33:14;;;;;;;;;;;23.40;99.90;;;;;;5052523;28;20437;-88
2023/07/13 12:35:44;;;;;;;;;;;23.10;99.90;;;;;;5035287;28;20430;-86
2023/07/13 12:38:10;;;;;;;;;;;22.60;99.90;;;;;;5054331;28;19932;-86
2023/07/13 12:40:36;;;;;;;;;;;22.40;99.90;;;;;;5053011;28;19925;-88
2023/07/13 12:43:04;;;;;;;;;;;22.50;99.90;;;;;;5053023;28;19929;-88
2023/07/13 12:45:30;;;;;;;;;;;22.60;99.90;;;;;;5034885;28;20287;-88
2023/07/13 12:48:15;;;;;;;;;;;22.60;99.90;;;;;;5051317;28;19987;-88
2023/07/13 12:50:41;;;;;;;;;;;22.50;99.90;;;;;;5034374;28;19964;-87
2023/07/13 12:53:15;;;;;;;;;;;22.40;99.90;;;;;;5037477;28;19941;-87
2023/07/13 12:55:46;;;;;;;;;;;22.60;99.90;;;;;;5055643;28;19925;-87
2023/07/13 12:58:21;;;;;;;;;;;22.90;99.90;;;;;;5040204;28;19948;-87
2023/07/13 13:00:52;;;;;;;;;;;23.10;99.90;;;;;;5058019;28;20015;-88
2023/07/13 13:03:20;;;;;;;;;;;23.20;99.90;;;;;;5038675;28;20329;-86
2023/07/13 13:05:46;;;;;;;;;;;23.40;99.90;;;;;;5040093;28;19967;-87
2023/07/13 13:08:12;;;;;;;;;;;23.60;99.90;;;;;;5035396;28;20025;-87
2023/07/13 13:10:38;;;;;;;;;;;23.50;99.90;;;;;;5067400;28;20299;-85
2023/07/13 13:13:04;;;;;;;;;;;23.40;99.90;;;;;;5051911;28;19928;-87
2023/07/13 13:15:30;;;;;;;;;;;23.30;99.90;;;;;;5033178;28;19931;-87
2023/07/13 13:17:56;;;;;;;;;;;23.10;99.90;;;;;;5061327;28;19964;-88
2023/07/13 13:20:22;;;;;;;;;;;22.90;99.90;;;;;;5064749;28;19925;-86
2023/07/13 13:22:48;;;;;;;;;;;22.60;99.90;;;;;;5033596;28;20290;-87
2023/07/13 13:25:14;;;;;;;;;;;22.80;99.90;;;;;;5051509;28;19931;-88
2023/07/13 13:27:44;;;;;;;;;;;23.00;99.90;;;;;;5035865;28;19925;-87
2023/07/13 13:30:14;;;;;;;;;;;23.00;99.90;;;;;;5052849;28;19970;-86
2023/07/13 13:32:43;;;;;;;;;;;22.80;99.90;;;;;;5066379;28;20825;-86
2023/07/13 13:35:16;;;;;;;;;;;22.60;99.90;;;;;;5054310;28;19933;-85
2023/07/13 13:37:42;;;;;;;;;;;22.60;99.90;;;;;;5033941;28;19979;-86
2023/07/13 13:40:18;;;;;;;;;;;22.60;99.90;;;;;;5049747;28;20343;-86
2023/07/13 13:42:43;;;;;;;;;;;22.70;99.90;;;;;;5022372;28;19931;-87
2023/07/13 13:45:09;;;;;;;;;;;22.60;99.90;;;;;;5054437;28;19925;-86
2023/07/13 13:47:36;;;;;;;;;;;22.60;99.90;;;;;;5020494;28;19935;-85
2023/07/13 13:50:02;;;;;;;;;;;22.80;99.90;;;;;;5050602;28;19925;-87
2023/07/13 13:52:27;;;;;;;;;;;22.90;99.90;;;;;;5050296;28;20388;-88
2023/07/13 13:54:56;;;;;;;;;;;23.10;99.90;;;;;;5050966;28;19929;-86
2023/07/13 13:57:25;;;;;;;;;;;23.20;99.90;;;;;;5032292;28;19924;-87
2023/07/13 13:59:52;;;;;;;;;;;23.10;99.00;;;;;;5044284;28;20373;-85
2023/07/13 14:02:28;;;;;;;;;;;23.20;99.90;;;;;;5033422;28;19936;-87
2023/07/13 14:04:59;;;;;;;;;;;23.30;99.90;;;;;;5033285;28;19964;-88
2023/07/13 14:07:25;;;;;;;;;;;23.50;99.90;;;;;;5033579;28;19925;-87
2023/07/13 14:09:52;;;;;;;;;;;23.60;99.90;;;;;;5052728;28;19924;-86
2023/07/13 14:12:18;;;;;;;;;;;23.70;99.90;;;;;;5052155;28;19925;-87
2023/07/13 14:14:44;;;;;;;;;;;23.70;99.60;;;;;;5050216;28;20390;-86
2023/07/13 14:17:21;;;;;;;;;;;23.70;97.70;;;;;;5033251;28;20015;-87